sensor_id;sensor_type;location;lat;lon;timestamp;P1;durP1;ratioP1;P2;durP2;ratioP2
36653;SDS011;22650;49.350;20.898;2023-03-17T00:01:32;85.93;;;31.88;;
36653;SDS011;22650;49.350;20.898;2023-03-17T00:04:08;91.75;;;31.55;;
36653;SDS011;22650;49.350;20.898;2023-03-17T00:06:42;90.65;;;36.70;;
36653;SDS011;22650;49.350;20.898;2023-03-17T00:09:17;84.72;;;34.08;;
36653;SDS011;22650;49.350;20.898;2023-03-17T00:11:51;69.63;;;29.83;;
36653;SDS011;22650;49.350;20.898;2023-03-17T00:14:25;91.15;;;29.30;;
36653;SDS011;22650;49.350;20.898;2023-03-17T00:16:59;83.93;;;31.25;;
36653;SDS011;22650;49.350;20.898;2023-03-17T00:19:34;78.82;;;31.30;;
36653;SDS011;22650;49.350;20.898;2023-03-17T00:22:11;74.05;;;28.83;;
36653;SDS011;22650;49.350;20.898;2023-03-17T00:24:48;78.78;;;30.45;;
36653;SDS011;22650;49.350;20.898;2023-03-17T00:27:22;76.38;;;30.98;;
36653;SDS011;22650;49.350;20.898;2023-03-17T00:29:56;81.50;;;31.33;;
36653;SDS011;22650;49.350;20.898;2023-03-17T00:32:29;66.32;;;27.65;;
36653;SDS011;22650;49.350;20.898;2023-03-17T00:35:15;71.53;;;27.88;;
36653;SDS011;22650;49.350;20.898;2023-03-17T00:37:52;71.32;;;30.10;;
36653;SDS011;22650;49.350;20.898;2023-03-17T00:40:28;77.50;;;28.15;;
36653;SDS011;22650;49.350;20.898;2023-03-17T00:43:04;68.53;;;26.52;;
36653;SDS011;22650;49.350;20.898;2023-03-17T00:45:40;85.05;;;28.75;;
36653;SDS011;22650;49.350;20.898;2023-03-17T00:48:14;63.65;;;25.48;;
36653;SDS011;22650;49.350;20.898;2023-03-17T00:50:50;82.63;;;28.05;;
36653;SDS011;22650;49.350;20.898;2023-03-17T00:53:25;72.50;;;26.30;;
36653;SDS011;22650;49.350;20.898;2023-03-17T00:55:58;67.18;;;27.02;;
36653;SDS011;22650;49.350;20.898;2023-03-17T00:58:32;70.13;;;29.00;;
36653;SDS011;22650;49.350;20.898;2023-03-17T01:01:06;77.72;;;28.20;;
36653;SDS011;22650;49.350;20.898;2023-03-17T01:03:40;67.38;;;24.83;;
36653;SDS011;22650;49.350;20.898;2023-03-17T01:06:15;63.17;;;26.65;;
36653;SDS011;22650;49.350;20.898;2023-03-17T01:08:48;67.60;;;24.42;;
36653;SDS011;22650;49.350;20.898;2023-03-17T01:11:22;57.17;;;23.83;;
36653;SDS011;22650;49.350;20.898;2023-03-17T01:13:56;54.75;;;21.63;;
36653;SDS011;22650;49.350;20.898;2023-03-17T01:16:33;58.65;;;22.10;;
36653;SDS011;22650;49.350;20.898;2023-03-17T01:19:07;67.38;;;22.90;;
36653;SDS011;22650;49.350;20.898;2023-03-17T01:21:44;61.40;;;23.23;;
36653;SDS011;22650;49.350;20.898;2023-03-17T01:24:18;83.07;;;27.08;;
36653;SDS011;22650;49.350;20.898;2023-03-17T01:26:52;60.70;;;23.88;;
36653;SDS011;22650;49.350;20.898;2023-03-17T01:29:25;70.55;;;26.55;;
36653;SDS011;22650;49.350;20.898;2023-03-17T01:31:59;65.18;;;24.60;;
36653;SDS011;22650;49.350;20.898;2023-03-17T01:34:32;67.60;;;24.50;;
36653;SDS011;22650;49.350;20.898;2023-03-17T01:37:07;65.13;;;22.90;;
36653;SDS011;22650;49.350;20.898;2023-03-17T01:39:41;74.68;;;25.77;;
36653;SDS011;22650;49.350;20.898;2023-03-17T01:42:14;63.88;;;24.75;;
36653;SDS011;22650;49.350;20.898;2023-03-17T01:44:55;60.03;;;23.70;;
36653;SDS011;22650;49.350;20.898;2023-03-17T01:47:30;55.92;;;23.63;;
36653;SDS011;22650;49.350;20.898;2023-03-17T01:50:04;61.28;;;23.80;;
36653;SDS011;22650;49.350;20.898;2023-03-17T01:52:43;57.72;;;22.75;;
36653;SDS011;22650;49.350;20.898;2023-03-17T01:55:18;62.20;;;22.27;;
36653;SDS011;22650;49.350;20.898;2023-03-17T01:57:52;69.60;;;23.48;;
36653;SDS011;22650;49.350;20.898;2023-03-17T02:00:27;55.20;;;21.25;;
36653;SDS011;22650;49.350;20.898;2023-03-17T02:03:01;51.85;;;18.42;;
36653;SDS011;22650;49.350;20.898;2023-03-17T02:05:36;52.85;;;19.52;;
36653;SDS011;22650;49.350;20.898;2023-03-17T02:08:13;59.97;;;20.23;;
36653;SDS011;22650;49.350;20.898;2023-03-17T02:10:48;54.85;;;22.67;;
36653;SDS011;22650;49.350;20.898;2023-03-17T02:13:22;59.95;;;21.17;;
36653;SDS011;22650;49.350;20.898;2023-03-17T02:15:57;48.50;;;19.35;;
36653;SDS011;22650;49.350;20.898;2023-03-17T02:18:31;47.30;;;19.48;;
36653;SDS011;22650;49.350;20.898;2023-03-17T02:24:22;51.58;;;19.08;;
36653;SDS011;22650;49.350;20.898;2023-03-17T02:27:02;44.70;;;18.33;;
36653;SDS011;22650;49.350;20.898;2023-03-17T02:29:38;56.85;;;20.10;;
36653;SDS011;22650;49.350;20.898;2023-03-17T02:32:13;55.65;;;20.27;;
36653;SDS011;22650;49.350;20.898;2023-03-17T02:34:48;46.65;;;18.58;;
36653;SDS011;22650;49.350;20.898;2023-03-17T02:37:21;47.22;;;19.33;;
36653;SDS011;22650;49.350;20.898;2023-03-17T02:39:57;42.60;;;17.88;;
36653;SDS011;22650;49.350;20.898;2023-03-17T02:42:32;43.83;;;17.15;;
36653;SDS011;22650;49.350;20.898;2023-03-17T02:45:06;45.53;;;18.10;;
36653;SDS011;22650;49.350;20.898;2023-03-17T02:47:42;56.95;;;20.40;;
36653;SDS011;22650;49.350;20.898;2023-03-17T02:50:16;51.20;;;19.10;;
36653;SDS011;22650;49.350;20.898;2023-03-17T02:52:53;45.55;;;17.52;;
36653;SDS011;22650;49.350;20.898;2023-03-17T02:55:28;41.38;;;17.17;;
36653;SDS011;22650;49.350;20.898;2023-03-17T02:58:02;48.80;;;18.30;;
36653;SDS011;22650;49.350;20.898;2023-03-17T03:00:35;52.75;;;18.90;;
36653;SDS011;22650;49.350;20.898;2023-03-17T03:03:09;40.50;;;16.83;;
36653;SDS011;22650;49.350;20.898;2023-03-17T03:05:43;43.90;;;16.20;;
36653;SDS011;22650;49.350;20.898;2023-03-17T03:08:17;44.17;;;17.67;;
36653;SDS011;22650;49.350;20.898;2023-03-17T03:10:52;45.90;;;19.77;;
36653;SDS011;22650;49.350;20.898;2023-03-17T03:13:26;47.17;;;20.30;;
36653;SDS011;22650;49.350;20.898;2023-03-17T03:16:00;40.80;;;17.42;;
36653;SDS011;22650;49.350;20.898;2023-03-17T03:18:35;58.03;;;18.73;;
36653;SDS011;22650;49.350;20.898;2023-03-17T03:21:09;45.47;;;16.13;;
36653;SDS011;22650;49.350;20.898;2023-03-17T03:23:43;41.42;;;17.40;;
36653;SDS011;22650;49.350;20.898;2023-03-17T03:26:17;41.35;;;18.33;;
36653;SDS011;22650;49.350;20.898;2023-03-17T03:28:51;48.78;;;20.45;;
36653;SDS011;22650;49.350;20.898;2023-03-17T03:31:25;45.03;;;16.48;;
36653;SDS011;22650;49.350;20.898;2023-03-17T03:33:59;51.80;;;19.25;;
36653;SDS011;22650;49.350;20.898;2023-03-17T03:36:32;49.40;;;17.13;;
36653;SDS011;22650;49.350;20.898;2023-03-17T03:39:06;55.58;;;20.10;;
36653;SDS011;22650;49.350;20.898;2023-03-17T03:41:42;40.70;;;16.30;;
36653;SDS011;22650;49.350;20.898;2023-03-17T03:44:15;44.78;;;17.35;;
36653;SDS011;22650;49.350;20.898;2023-03-17T03:46:49;42.58;;;17.67;;
36653;SDS011;22650;49.350;20.898;2023-03-17T03:49:22;42.67;;;18.75;;
36653;SDS011;22650;49.350;20.898;2023-03-17T03:51:56;53.03;;;18.15;;
36653;SDS011;22650;49.350;20.898;2023-03-17T03:54:30;41.60;;;16.85;;
36653;SDS011;22650;49.350;20.898;2023-03-17T03:57:05;49.33;;;18.35;;
36653;SDS011;22650;49.350;20.898;2023-03-17T03:59:38;45.42;;;18.23;;
36653;SDS011;22650;49.350;20.898;2023-03-17T04:02:12;54.10;;;17.67;;
36653;SDS011;22650;49.350;20.898;2023-03-17T04:04:45;46.90;;;18.23;;
36653;SDS011;22650;49.350;20.898;2023-03-17T04:07:19;38.33;;;16.23;;
36653;SDS011;22650;49.350;20.898;2023-03-17T04:09:53;46.38;;;17.38;;
36653;SDS011;22650;49.350;20.898;2023-03-17T04:12:28;43.10;;;17.55;;
36653;SDS011;22650;49.350;20.898;2023-03-17T04:15:02;38.88;;;16.35;;
36653;SDS011;22650;49.350;20.898;2023-03-17T04:17:36;52.50;;;16.80;;
36653;SDS011;22650;49.350;20.898;2023-03-17T04:20:10;49.70;;;18.02;;
36653;SDS011;22650;49.350;20.898;2023-03-17T04:22:45;33.88;;;14.20;;
36653;SDS011;22650;49.350;20.898;2023-03-17T04:25:18;33.08;;;15.23;;
36653;SDS011;22650;49.350;20.898;2023-03-17T04:27:53;38.88;;;16.98;;
36653;SDS011;22650;49.350;20.898;2023-03-17T04:30:27;37.10;;;15.10;;
36653;SDS011;22650;49.350;20.898;2023-03-17T04:33:00;48.63;;;17.10;;
36653;SDS011;22650;49.350;20.898;2023-03-17T04:35:34;42.42;;;16.52;;
36653;SDS011;22650;49.350;20.898;2023-03-17T04:38:08;47.30;;;15.90;;
36653;SDS011;22650;49.350;20.898;2023-03-17T04:40:44;42.92;;;17.98;;
36653;SDS011;22650;49.350;20.898;2023-03-17T04:43:19;47.70;;;16.75;;
36653;SDS011;22650;49.350;20.898;2023-03-17T04:45:53;41.08;;;14.38;;
36653;SDS011;22650;49.350;20.898;2023-03-17T04:48:26;46.17;;;17.02;;
36653;SDS011;22650;49.350;20.898;2023-03-17T04:51:00;44.35;;;17.02;;
36653;SDS011;22650;49.350;20.898;2023-03-17T04:53:33;39.95;;;16.48;;
36653;SDS011;22650;49.350;20.898;2023-03-17T04:56:07;38.17;;;16.90;;
36653;SDS011;22650;49.350;20.898;2023-03-17T04:58:42;53.13;;;17.90;;
36653;SDS011;22650;49.350;20.898;2023-03-17T05:01:15;42.92;;;17.00;;
36653;SDS011;22650;49.350;20.898;2023-03-17T05:03:49;44.13;;;15.02;;
36653;SDS011;22650;49.350;20.898;2023-03-17T05:06:23;38.15;;;14.50;;
36653;SDS011;22650;49.350;20.898;2023-03-17T05:08:57;39.15;;;15.50;;
36653;SDS011;22650;49.350;20.898;2023-03-17T05:11:30;43.00;;;14.70;;
36653;SDS011;22650;49.350;20.898;2023-03-17T05:14:05;40.17;;;15.60;;
36653;SDS011;22650;49.350;20.898;2023-03-17T05:16:38;41.95;;;15.80;;
36653;SDS011;22650;49.350;20.898;2023-03-17T05:19:12;37.17;;;14.50;;
36653;SDS011;22650;49.350;20.898;2023-03-17T05:21:45;46.67;;;15.43;;
36653;SDS011;22650;49.350;20.898;2023-03-17T05:24:19;44.03;;;15.65;;
36653;SDS011;22650;49.350;20.898;2023-03-17T05:26:53;36.22;;;14.48;;
36653;SDS011;22650;49.350;20.898;2023-03-17T05:29:27;52.83;;;17.15;;
36653;SDS011;22650;49.350;20.898;2023-03-17T05:32:01;37.88;;;16.67;;
36653;SDS011;22650;49.350;20.898;2023-03-17T05:34:35;43.17;;;16.10;;
36653;SDS011;22650;49.350;20.898;2023-03-17T05:37:09;40.42;;;15.68;;
36653;SDS011;22650;49.350;20.898;2023-03-17T05:39:43;45.75;;;16.92;;
36653;SDS011;22650;49.350;20.898;2023-03-17T05:42:16;50.80;;;18.48;;
36653;SDS011;22650;49.350;20.898;2023-03-17T05:44:51;58.42;;;22.60;;
36653;SDS011;22650;49.350;20.898;2023-03-17T05:47:25;44.85;;;16.98;;
36653;SDS011;22650;49.350;20.898;2023-03-17T05:49:58;38.88;;;17.08;;
36653;SDS011;22650;49.350;20.898;2023-03-17T05:52:32;45.83;;;18.85;;
36653;SDS011;22650;49.350;20.898;2023-03-17T05:55:06;44.53;;;17.33;;
36653;SDS011;22650;49.350;20.898;2023-03-17T05:57:40;48.85;;;18.00;;
36653;SDS011;22650;49.350;20.898;2023-03-17T06:00:15;49.28;;;18.23;;
36653;SDS011;22650;49.350;20.898;2023-03-17T06:02:49;47.83;;;19.33;;
36653;SDS011;22650;49.350;20.898;2023-03-17T06:05:22;59.05;;;23.20;;
36653;SDS011;22650;49.350;20.898;2023-03-17T06:07:56;64.55;;;25.95;;
36653;SDS011;22650;49.350;20.898;2023-03-17T06:10:30;68.80;;;26.63;;
36653;SDS011;22650;49.350;20.898;2023-03-17T06:13:04;61.30;;;25.77;;
36653;SDS011;22650;49.350;20.898;2023-03-17T06:15:39;51.45;;;22.83;;
36653;SDS011;22650;49.350;20.898;2023-03-17T06:18:13;57.80;;;22.40;;
36653;SDS011;22650;49.350;20.898;2023-03-17T06:20:47;53.83;;;21.88;;
36653;SDS011;22650;49.350;20.898;2023-03-17T06:23:20;46.00;;;20.83;;
36653;SDS011;22650;49.350;20.898;2023-03-17T06:25:54;56.88;;;20.88;;
36653;SDS011;22650;49.350;20.898;2023-03-17T06:28:28;37.92;;;17.20;;
36653;SDS011;22650;49.350;20.898;2023-03-17T06:31:03;35.28;;;15.13;;
36653;SDS011;22650;49.350;20.898;2023-03-17T06:33:38;41.47;;;14.80;;
36653;SDS011;22650;49.350;20.898;2023-03-17T06:36:11;30.52;;;15.07;;
36653;SDS011;22650;49.350;20.898;2023-03-17T06:38:45;31.65;;;13.18;;
36653;SDS011;22650;49.350;20.898;2023-03-17T06:41:18;41.97;;;16.83;;
36653;SDS011;22650;49.350;20.898;2023-03-17T06:43:52;29.80;;;13.82;;
36653;SDS011;22650;49.350;20.898;2023-03-17T06:46:27;33.05;;;13.93;;
36653;SDS011;22650;49.350;20.898;2023-03-17T06:49:00;33.47;;;15.55;;
36653;SDS011;22650;49.350;20.898;2023-03-17T06:51:35;34.17;;;14.57;;
36653;SDS011;22650;49.350;20.898;2023-03-17T06:54:08;27.52;;;13.55;;
36653;SDS011;22650;49.350;20.898;2023-03-17T06:56:42;23.55;;;11.93;;
36653;SDS011;22650;49.350;20.898;2023-03-17T06:59:16;31.02;;;13.45;;
36653;SDS011;22650;49.350;20.898;2023-03-17T07:01:52;30.83;;;12.05;;
36653;SDS011;22650;49.350;20.898;2023-03-17T07:04:26;40.25;;;12.80;;
36653;SDS011;22650;49.350;20.898;2023-03-17T07:07:00;41.45;;;12.90;;
36653;SDS011;22650;49.350;20.898;2023-03-17T07:09:34;33.25;;;14.10;;
36653;SDS011;22650;49.350;20.898;2023-03-17T07:12:07;32.53;;;12.48;;
36653;SDS011;22650;49.350;20.898;2023-03-17T07:14:41;31.05;;;11.93;;
36653;SDS011;22650;49.350;20.898;2023-03-17T07:17:17;32.17;;;13.50;;
36653;SDS011;22650;49.350;20.898;2023-03-17T07:19:51;32.28;;;13.50;;
36653;SDS011;22650;49.350;20.898;2023-03-17T07:22:24;35.63;;;15.73;;
36653;SDS011;22650;49.350;20.898;2023-03-17T07:24:58;34.22;;;14.35;;
36653;SDS011;22650;49.350;20.898;2023-03-17T07:27:31;37.60;;;12.80;;
36653;SDS011;22650;49.350;20.898;2023-03-17T07:30:05;32.20;;;12.93;;
36653;SDS011;22650;49.350;20.898;2023-03-17T07:32:42;29.02;;;11.90;;
36653;SDS011;22650;49.350;20.898;2023-03-17T07:35:16;22.10;;;11.07;;
36653;SDS011;22650;49.350;20.898;2023-03-17T07:37:50;29.00;;;10.90;;
36653;SDS011;22650;49.350;20.898;2023-03-17T07:40:23;24.85;;;10.15;;
36653;SDS011;22650;49.350;20.898;2023-03-17T07:42:57;19.90;;;7.53;;
36653;SDS011;22650;49.350;20.898;2023-03-17T07:45:31;20.10;;;8.05;;
36653;SDS011;22650;49.350;20.898;2023-03-17T07:48:08;19.55;;;7.25;;
36653;SDS011;22650;49.350;20.898;2023-03-17T07:50:41;14.77;;;6.63;;
36653;SDS011;22650;49.350;20.898;2023-03-17T07:53:15;14.90;;;7.15;;
36653;SDS011;22650;49.350;20.898;2023-03-17T07:55:49;16.45;;;6.43;;
36653;SDS011;22650;49.350;20.898;2023-03-17T07:58:23;12.57;;;5.95;;
36653;SDS011;22650;49.350;20.898;2023-03-17T08:00:57;16.85;;;6.97;;
36653;SDS011;22650;49.350;20.898;2023-03-17T08:03:32;15.32;;;5.90;;
36653;SDS011;22650;49.350;20.898;2023-03-17T08:06:06;15.80;;;6.88;;
36653;SDS011;22650;49.350;20.898;2023-03-17T08:08:40;15.05;;;5.95;;
36653;SDS011;22650;49.350;20.898;2023-03-17T08:11:13;15.23;;;5.65;;
36653;SDS011;22650;49.350;20.898;2023-03-17T08:13:48;15.60;;;5.75;;
36653;SDS011;22650;49.350;20.898;2023-03-17T08:16:22;16.05;;;6.18;;
36653;SDS011;22650;49.350;20.898;2023-03-17T08:18:57;11.68;;;4.90;;
36653;SDS011;22650;49.350;20.898;2023-03-17T08:21:30;12.48;;;5.43;;
36653;SDS011;22650;49.350;20.898;2023-03-17T08:24:04;10.88;;;4.80;;
36653;SDS011;22650;49.350;20.898;2023-03-17T08:26:38;12.25;;;4.85;;
36653;SDS011;22650;49.350;20.898;2023-03-17T08:29:12;18.70;;;5.07;;
36653;SDS011;22650;49.350;20.898;2023-03-17T08:31:46;9.05;;;4.65;;
36653;SDS011;22650;49.350;20.898;2023-03-17T08:34:21;5.45;;;3.00;;
36653;SDS011;22650;49.350;20.898;2023-03-17T08:36:56;7.40;;;3.75;;
36653;SDS011;22650;49.350;20.898;2023-03-17T08:39:31;5.90;;;2.88;;
36653;SDS011;22650;49.350;20.898;2023-03-17T08:42:05;8.65;;;3.40;;
36653;SDS011;22650;49.350;20.898;2023-03-17T08:44:39;11.13;;;3.83;;
36653;SDS011;22650;49.350;20.898;2023-03-17T08:47:14;7.88;;;4.18;;
36653;SDS011;22650;49.350;20.898;2023-03-17T08:49:49;14.07;;;5.47;;
36653;SDS011;22650;49.350;20.898;2023-03-17T08:52:23;4.43;;;2.42;;
36653;SDS011;22650;49.350;20.898;2023-03-17T08:54:58;4.43;;;2.00;;
36653;SDS011;22650;49.350;20.898;2023-03-17T08:57:31;4.50;;;1.85;;
36653;SDS011;22650;49.350;20.898;2023-03-17T09:00:05;7.68;;;1.83;;
36653;SDS011;22650;49.350;20.898;2023-03-17T09:02:42;3.88;;;1.77;;
36653;SDS011;22650;49.350;20.898;2023-03-17T09:05:18;2.90;;;1.77;;
36653;SDS011;22650;49.350;20.898;2023-03-17T09:07:52;4.03;;;1.75;;
36653;SDS011;22650;49.350;20.898;2023-03-17T09:10:26;4.05;;;1.70;;
36653;SDS011;22650;49.350;20.898;2023-03-17T09:13:00;16.75;;;2.72;;
36653;SDS011;22650;49.350;20.898;2023-03-17T09:15:34;3.53;;;1.83;;
36653;SDS011;22650;49.350;20.898;2023-03-17T09:18:08;3.30;;;1.48;;
36653;SDS011;22650;49.350;20.898;2023-03-17T09:20:43;3.17;;;1.83;;
36653;SDS011;22650;49.350;20.898;2023-03-17T09:23:17;7.40;;;1.63;;
36653;SDS011;22650;49.350;20.898;2023-03-17T09:25:51;12.00;;;1.58;;
36653;SDS011;22650;49.350;20.898;2023-03-17T09:28:25;3.28;;;1.50;;
36653;SDS011;22650;49.350;20.898;2023-03-17T09:31:00;8.13;;;1.65;;
36653;SDS011;22650;49.350;20.898;2023-03-17T09:33:34;4.32;;;1.92;;
36653;SDS011;22650;49.350;20.898;2023-03-17T09:36:09;6.22;;;1.75;;
36653;SDS011;22650;49.350;20.898;2023-03-17T09:38:43;7.70;;;2.03;;
36653;SDS011;22650;49.350;20.898;2023-03-17T09:41:22;6.07;;;2.28;;
36653;SDS011;22650;49.350;20.898;2023-03-17T09:44:33;3.13;;;2.20;;
36653;SDS011;22650;49.350;20.898;2023-03-17T09:47:23;4.35;;;1.95;;
36653;SDS011;22650;49.350;20.898;2023-03-17T09:50:14;4.10;;;2.13;;
36653;SDS011;22650;49.350;20.898;2023-03-17T09:52:52;3.78;;;2.08;;
36653;SDS011;22650;49.350;20.898;2023-03-17T09:55:29;4.68;;;2.38;;
36653;SDS011;22650;49.350;20.898;2023-03-17T09:58:04;3.47;;;1.80;;
36653;SDS011;22650;49.350;20.898;2023-03-17T10:00:38;8.07;;;2.95;;
36653;SDS011;22650;49.350;20.898;2023-03-17T10:03:11;6.97;;;2.08;;
36653;SDS011;22650;49.350;20.898;2023-03-17T10:05:45;6.97;;;2.83;;
36653;SDS011;22650;49.350;20.898;2023-03-17T10:08:21;3.00;;;2.08;;
36653;SDS011;22650;49.350;20.898;2023-03-17T10:11:04;7.10;;;2.15;;
36653;SDS011;22650;49.350;20.898;2023-03-17T10:13:48;9.73;;;2.38;;
36653;SDS011;22650;49.350;20.898;2023-03-17T10:16:29;12.75;;;2.17;;
36653;SDS011;22650;49.350;20.898;2023-03-17T10:19:10;6.50;;;1.95;;
36653;SDS011;22650;49.350;20.898;2023-03-17T10:21:49;5.18;;;2.20;;
36653;SDS011;22650;49.350;20.898;2023-03-17T10:24:27;4.13;;;1.85;;
36653;SDS011;22650;49.350;20.898;2023-03-17T10:27:03;4.78;;;2.08;;
36653;SDS011;22650;49.350;20.898;2023-03-17T10:29:40;3.20;;;1.70;;
36653;SDS011;22650;49.350;20.898;2023-03-17T10:32:14;5.95;;;2.40;;
36653;SDS011;22650;49.350;20.898;2023-03-17T10:34:47;6.97;;;2.30;;
36653;SDS011;22650;49.350;20.898;2023-03-17T10:37:22;11.15;;;2.70;;
36653;SDS011;22650;49.350;20.898;2023-03-17T10:39:59;3.00;;;1.73;;
36653;SDS011;22650;49.350;20.898;2023-03-17T10:42:43;4.63;;;1.60;;
36653;SDS011;22650;49.350;20.898;2023-03-17T10:45:20;7.07;;;2.17;;
36653;SDS011;22650;49.350;20.898;2023-03-17T10:47:59;5.15;;;2.05;;
36653;SDS011;22650;49.350;20.898;2023-03-17T10:50:35;4.38;;;1.80;;
36653;SDS011;22650;49.350;20.898;2023-03-17T10:53:16;3.97;;;2.50;;
36653;SDS011;22650;49.350;20.898;2023-03-17T10:56:05;5.47;;;2.83;;
36653;SDS011;22650;49.350;20.898;2023-03-17T10:58:42;6.53;;;1.70;;
36653;SDS011;22650;49.350;20.898;2023-03-17T11:01:20;7.93;;;2.00;;
36653;SDS011;22650;49.350;20.898;2023-03-17T11:03:59;5.85;;;2.20;;
36653;SDS011;22650;49.350;20.898;2023-03-17T11:06:37;3.88;;;2.17;;
36653;SDS011;22650;49.350;20.898;2023-03-17T11:09:14;2.80;;;1.60;;
36653;SDS011;22650;49.350;20.898;2023-03-17T11:11:59;2.42;;;1.45;;
36653;SDS011;22650;49.350;20.898;2023-03-17T11:14:35;3.47;;;1.52;;
36653;SDS011;22650;49.350;20.898;2023-03-17T11:17:11;3.25;;;1.98;;
36653;SDS011;22650;49.350;20.898;2023-03-17T11:19:50;4.00;;;1.73;;
36653;SDS011;22650;49.350;20.898;2023-03-17T11:22:30;3.40;;;1.65;;
36653;SDS011;22650;49.350;20.898;2023-03-17T11:25:09;6.05;;;2.25;;
36653;SDS011;22650;49.350;20.898;2023-03-17T11:27:47;2.58;;;1.80;;
36653;SDS011;22650;49.350;20.898;2023-03-17T11:30:27;5.18;;;2.30;;
36653;SDS011;22650;49.350;20.898;2023-03-17T11:33:21;4.15;;;1.60;;
36653;SDS011;22650;49.350;20.898;2023-03-17T11:36:14;5.60;;;2.72;;
36653;SDS011;22650;49.350;20.898;2023-03-17T11:38:58;3.47;;;1.90;;
36653;SDS011;22650;49.350;20.898;2023-03-17T11:41:39;2.63;;;1.67;;
36653;SDS011;22650;49.350;20.898;2023-03-17T11:44:24;3.78;;;1.60;;
36653;SDS011;22650;49.350;20.898;2023-03-17T11:47:30;2.42;;;1.50;;
36653;SDS011;22650;49.350;20.898;2023-03-17T11:50:16;4.18;;;2.08;;
36653;SDS011;22650;49.350;20.898;2023-03-17T11:52:59;4.28;;;1.52;;
36653;SDS011;22650;49.350;20.898;2023-03-17T11:55:46;2.30;;;1.55;;
36653;SDS011;22650;49.350;20.898;2023-03-17T11:58:25;3.60;;;1.83;;
36653;SDS011;22650;49.350;20.898;2023-03-17T12:01:06;3.20;;;2.08;;
36653;SDS011;22650;49.350;20.898;2023-03-17T12:03:43;4.82;;;1.80;;
36653;SDS011;22650;49.350;20.898;2023-03-17T12:06:20;5.90;;;1.70;;
36653;SDS011;22650;49.350;20.898;2023-03-17T12:09:02;4.53;;;1.98;;
36653;SDS011;22650;49.350;20.898;2023-03-17T12:11:46;4.90;;;2.38;;
36653;SDS011;22650;49.350;20.898;2023-03-17T12:14:22;6.47;;;2.13;;
36653;SDS011;22650;49.350;20.898;2023-03-17T12:17:03;4.38;;;2.13;;
36653;SDS011;22650;49.350;20.898;2023-03-17T12:19:46;4.05;;;1.85;;
36653;SDS011;22650;49.350;20.898;2023-03-17T12:22:30;4.53;;;1.83;;
36653;SDS011;22650;49.350;20.898;2023-03-17T12:25:09;6.47;;;1.85;;
36653;SDS011;22650;49.350;20.898;2023-03-17T12:27:51;2.38;;;1.40;;
36653;SDS011;22650;49.350;20.898;2023-03-17T12:30:31;7.30;;;1.90;;
36653;SDS011;22650;49.350;20.898;2023-03-17T12:33:16;7.95;;;2.22;;
36653;SDS011;22650;49.350;20.898;2023-03-17T12:35:54;4.82;;;1.63;;
36653;SDS011;22650;49.350;20.898;2023-03-17T12:38:30;7.95;;;1.88;;
36653;SDS011;22650;49.350;20.898;2023-03-17T12:41:12;4.53;;;2.25;;
36653;SDS011;22650;49.350;20.898;2023-03-17T12:44:16;4.65;;;2.17;;
36653;SDS011;22650;49.350;20.898;2023-03-17T12:47:10;4.00;;;1.73;;
36653;SDS011;22650;49.350;20.898;2023-03-17T12:50:04;3.95;;;1.88;;
36653;SDS011;22650;49.350;20.898;2023-03-17T12:52:57;4.05;;;1.80;;
36653;SDS011;22650;49.350;20.898;2023-03-17T12:55:48;2.65;;;1.40;;
36653;SDS011;22650;49.350;20.898;2023-03-17T12:58:34;2.80;;;1.80;;
36653;SDS011;22650;49.350;20.898;2023-03-17T13:01:14;5.82;;;2.05;;
36653;SDS011;22650;49.350;20.898;2023-03-17T13:03:57;5.53;;;1.77;;
36653;SDS011;22650;49.350;20.898;2023-03-17T13:06:38;3.95;;;1.98;;
36653;SDS011;22650;49.350;20.898;2023-03-17T13:09:27;3.42;;;1.63;;
36653;SDS011;22650;49.350;20.898;2023-03-17T13:12:13;4.60;;;2.35;;
36653;SDS011;22650;49.350;20.898;2023-03-17T13:15:20;2.65;;;1.23;;
36653;SDS011;22650;49.350;20.898;2023-03-17T13:21:16;4.72;;;1.98;;
36653;SDS011;22650;49.350;20.898;2023-03-17T13:23:56;4.00;;;2.00;;
36653;SDS011;22650;49.350;20.898;2023-03-17T13:26:56;3.35;;;1.70;;
36653;SDS011;22650;49.350;20.898;2023-03-17T13:29:42;5.93;;;1.48;;
36653;SDS011;22650;49.350;20.898;2023-03-17T13:32:31;1.95;;;1.70;;
36653;SDS011;22650;49.350;20.898;2023-03-17T13:35:18;3.50;;;1.77;;
36653;SDS011;22650;49.350;20.898;2023-03-17T13:44:19;3.45;;;1.50;;
36653;SDS011;22650;49.350;20.898;2023-03-17T13:47:23;4.28;;;1.52;;
36653;SDS011;22650;49.350;20.898;2023-03-17T13:50:01;3.58;;;1.95;;
36653;SDS011;22650;49.350;20.898;2023-03-17T13:52:40;4.05;;;2.00;;
36653;SDS011;22650;49.350;20.898;2023-03-17T13:55:30;2.38;;;1.52;;
36653;SDS011;22650;49.350;20.898;2023-03-17T13:58:21;4.28;;;1.83;;
36653;SDS011;22650;49.350;20.898;2023-03-17T14:01:04;3.60;;;1.50;;
36653;SDS011;22650;49.350;20.898;2023-03-17T14:03:45;7.10;;;1.58;;
36653;SDS011;22650;49.350;20.898;2023-03-17T14:06:21;3.88;;;2.05;;
36653;SDS011;22650;49.350;20.898;2023-03-17T14:09:02;14.95;;;1.88;;
36653;SDS011;22650;49.350;20.898;2023-03-17T14:11:41;2.30;;;1.73;;
36653;SDS011;22650;49.350;20.898;2023-03-17T14:14:22;3.95;;;1.63;;
36653;SDS011;22650;49.350;20.898;2023-03-17T14:17:09;4.05;;;1.77;;
36653;SDS011;22650;49.350;20.898;2023-03-17T14:19:58;2.63;;;1.33;;
36653;SDS011;22650;49.350;20.898;2023-03-17T14:22:39;2.75;;;1.88;;
36653;SDS011;22650;49.350;20.898;2023-03-17T14:25:16;5.63;;;1.80;;
36653;SDS011;22650;49.350;20.898;2023-03-17T14:27:52;2.88;;;1.48;;
36653;SDS011;22650;49.350;20.898;2023-03-17T14:30:29;3.10;;;1.30;;
36653;SDS011;22650;49.350;20.898;2023-03-17T14:33:05;3.13;;;1.77;;
36653;SDS011;22650;49.350;20.898;2023-03-17T14:35:48;4.25;;;2.00;;
36653;SDS011;22650;49.350;20.898;2023-03-17T14:38:24;2.92;;;1.80;;
36653;SDS011;22650;49.350;20.898;2023-03-17T14:40:59;5.25;;;1.50;;
36653;SDS011;22650;49.350;20.898;2023-03-17T14:43:35;5.25;;;2.03;;
36653;SDS011;22650;49.350;20.898;2023-03-17T14:46:13;14.60;;;1.98;;
36653;SDS011;22650;49.350;20.898;2023-03-17T14:48:56;3.35;;;1.60;;
36653;SDS011;22650;49.350;20.898;2023-03-17T14:51:33;6.70;;;2.20;;
36653;SDS011;22650;49.350;20.898;2023-03-17T14:54:10;4.13;;;1.98;;
36653;SDS011;22650;49.350;20.898;2023-03-17T14:56:47;3.35;;;1.45;;
36653;SDS011;22650;49.350;20.898;2023-03-17T14:59:24;4.88;;;2.03;;
36653;SDS011;22650;49.350;20.898;2023-03-17T15:02:13;4.32;;;2.00;;
36653;SDS011;22650;49.350;20.898;2023-03-17T15:04:54;3.55;;;1.48;;
36653;SDS011;22650;49.350;20.898;2023-03-17T15:07:30;4.03;;;1.67;;
36653;SDS011;22650;49.350;20.898;2023-03-17T15:10:12;2.30;;;1.25;;
36653;SDS011;22650;49.350;20.898;2023-03-17T15:12:47;4.05;;;1.77;;
36653;SDS011;22650;49.350;20.898;2023-03-17T15:15:22;3.55;;;1.52;;
36653;SDS011;22650;49.350;20.898;2023-03-17T15:18:02;6.38;;;2.15;;
36653;SDS011;22650;49.350;20.898;2023-03-17T15:20:38;2.60;;;1.65;;
36653;SDS011;22650;49.350;20.898;2023-03-17T15:23:15;7.30;;;2.60;;
36653;SDS011;22650;49.350;20.898;2023-03-17T15:25:51;4.00;;;1.73;;
36653;SDS011;22650;49.350;20.898;2023-03-17T15:28:27;3.60;;;1.65;;
36653;SDS011;22650;49.350;20.898;2023-03-17T15:31:08;3.33;;;1.42;;